Time;durP1;ratioP1;P1;durP2;ratioP2;P2;SDS_P1;SDS_P2;PMS_P1;PMS_P2;Temp;Humidity;BMP_temperature;BMP_pressure;BME280_temperature;BME280_humidity;BME280_pressure;Samples;Min_cycle;Max_cycle;Signal;HPM_P1;HPM_P2
2023/10/15 00:00:21;;;;;;;9.65;8.95;;;;;;;;;;4996321;28;20093;-76
2023/10/15 00:02:48;;;;;;;12.32;9.40;;;;;;;;;;4995476;28;20606;-76
2023/10/15 00:05:16;;;;;;;10.43;9.18;;;;;;;;;;4986611;28;20030;-75
2023/10/15 00:07:42;;;;;;;9.55;8.57;;;;;;;;;;4985519;28;20035;-76
2023/10/15 00:10:16;;;;;;;10.45;9.57;;;;;;;;;;5003178;28;20088;-76
2023/10/15 00:13:00;;;;;;;9.82;9.13;;;;;;;;;;5013292;28;20037;-75
2023/10/15 00:15:28;;;;;;;11.20;9.57;;;;;;;;;;4999966;28;20042;-74
2023/10/15 00:18:09;;;;;;;9.82;9.02;;;;;;;;;;4998494;28;20042;-74
2023/10/15 00:20:36;;;;;;;11.02;9.52;;;;;;;;;;5003908;28;20403;-75
2023/10/15 00:23:05;;;;;;;9.73;8.93;;;;;;;;;;5002734;28;20042;-72
2023/10/15 00:25:41;;;;;;;10.15;9.13;;;;;;;;;;4988293;28;20042;-74
2023/10/15 00:28:15;;;;;;;9.75;8.95;;;;;;;;;;5004966;28;20038;-74
2023/10/15 00:30:44;;;;;;;12.32;9.48;;;;;;;;;;5006401;28;20036;-74
2023/10/15 00:33:16;;;;;;;10.13;9.18;;;;;;;;;;5006327;28;20598;-75
2023/10/15 00:35:44;;;;;;;12.88;9.23;;;;;;;;;;5006273;28;20129;-75
2023/10/15 00:38:16;;;;;;;9.52;8.63;;;;;;;;;;5009645;28;20038;-74
2023/10/15 00:40:45;;;;;;;10.15;9.45;;;;;;;;;;5002067;28;20657;-74
2023/10/15 00:43:13;;;;;;;9.97;9.27;;;;;;;;;;4997126;28;20039;-74
2023/10/15 00:45:45;;;;;;;10.10;9.20;;;;;;;;;;5009218;28;20034;-74
2023/10/15 00:48:33;;;;;;;10.00;9.00;;;;;;;;;;4999857;28;20030;-74
2023/10/15 00:51:00;;;;;;;10.18;9.25;;;;;;;;;;5009141;28;20117;-75
2023/10/15 00:53:28;;;;;;;10.23;9.25;;;;;;;;;;5011592;28;20120;-74
2023/10/15 00:56:05;;;;;;;9.93;9.10;;;;;;;;;;5005738;28;20504;-74
2023/10/15 00:58:39;;;;;;;9.70;8.77;;;;;;;;;;5009095;28;20041;-73
2023/10/15 01:03:48;;;;;;;10.43;9.38;;;;;;;;;;5020839;28;20052;-72
2023/10/15 01:06:16;;;;;;;10.73;9.10;;;;;;;;;;4982156;28;20532;-72
2023/10/15 01:08:42;;;;;;;10.23;9.32;;;;;;;;;;5002978;28;20029;-73
2023/10/15 01:11:09;;;;;;;10.95;9.85;;;;;;;;;;4990962;28;20403;-73
2023/10/15 01:13:36;;;;;;;10.35;9.35;;;;;;;;;;5004642;28;20066;-73
2023/10/15 01:16:03;;;;;;;10.25;9.43;;;;;;;;;;5009251;28;20407;-75
2023/10/15 01:18:29;;;;;;;10.35;9.10;;;;;;;;;;5008584;28;20033;-75
2023/10/15 01:20:55;;;;;;;9.75;8.93;;;;;;;;;;5009944;28;20579;-73
2023/10/15 01:23:45;;;;;;;12.82;9.15;;;;;;;;;;4995221;28;20080;-74
2023/10/15 01:26:23;;;;;;;10.45;9.23;;;;;;;;;;5016603;28;20058;-75
2023/10/15 01:28:51;;;;;;;9.25;8.50;;;;;;;;;;5024177;28;20455;-73
2023/10/15 01:31:17;;;;;;;11.93;9.18;;;;;;;;;;5001604;28;20407;-73
2023/10/15 01:33:46;;;;;;;10.50;9.25;;;;;;;;;;5003880;28;20038;-73
2023/10/15 01:36:18;;;;;;;10.20;9.23;;;;;;;;;;5009574;28;20030;-73
2023/10/15 01:38:44;;;;;;;9.88;9.07;;;;;;;;;;5009258;28;20038;-72
2023/10/15 01:41:16;;;;;;;9.15;8.55;;;;;;;;;;5007566;28;20026;-73
2023/10/15 01:43:46;;;;;;;10.13;9.23;;;;;;;;;;4992412;28;20053;-72
2023/10/15 01:48:59;;;;;;;11.43;8.73;;;;;;;;;;5005911;28;20041;-73
2023/10/15 01:51:29;;;;;;;9.43;8.60;;;;;;;;;;5006203;28;20088;-76
2023/10/15 01:53:56;;;;;;;9.75;8.85;;;;;;;;;;4998424;28;20401;-74
2023/10/15 01:56:23;;;;;;;9.15;8.32;;;;;;;;;;5006280;28;20048;-74
2023/10/15 01:58:49;;;;;;;9.55;8.85;;;;;;;;;;5004761;28;20100;-72
2023/10/15 02:01:31;;;;;;;9.52;8.57;;;;;;;;;;5019477;28;20029;-73
2023/10/15 02:03:57;;;;;;;9.30;8.63;;;;;;;;;;5009242;28;20050;-73
2023/10/15 02:06:25;;;;;;;9.63;8.73;;;;;;;;;;4998255;28;20396;-73
2023/10/15 02:08:51;;;;;;;10.32;9.25;;;;;;;;;;5000836;28;20041;-75
2023/10/15 02:11:24;;;;;;;10.05;8.48;;;;;;;;;;4984148;28;20046;-73
2023/10/15 02:13:51;;;;;;;10.40;9.50;;;;;;;;;;5006895;28;20068;-73
2023/10/15 02:16:29;;;;;;;10.23;8.90;;;;;;;;;;5002843;28;20034;-73
2023/10/15 02:18:58;;;;;;;12.98;9.25;;;;;;;;;;5001856;28;20034;-75
2023/10/15 02:21:24;;;;;;;9.93;9.20;;;;;;;;;;4990272;28;20492;-74
2023/10/15 02:23:53;;;;;;;10.10;9.20;;;;;;;;;;4999758;28;20034;-74
2023/10/15 02:26:23;;;;;;;9.70;9.07;;;;;;;;;;5001815;28;20046;-75
2023/10/15 02:28:53;;;;;;;9.68;8.95;;;;;;;;;;5006472;28;20041;-75
2023/10/15 02:31:22;;;;;;;9.43;8.73;;;;;;;;;;5007736;28;20038;-73
2023/10/15 02:33:50;;;;;;;9.35;8.70;;;;;;;;;;4992922;28;20510;-75
2023/10/15 02:36:16;;;;;;;9.95;8.77;;;;;;;;;;5006396;28;20495;-75
2023/10/15 02:38:52;;;;;;;9.27;8.68;;;;;;;;;;5001254;28;20049;-73
2023/10/15 02:41:19;;;;;;;9.73;8.93;;;;;;;;;;5009274;28;20022;-72
2023/10/15 02:44:12;;;;;;;15.77;9.10;;;;;;;;;;4999613;28;20050;-72
2023/10/15 02:48:58;;;;;;;10.60;9.43;;;;;;;;;;4999063;28;20041;-73
2023/10/15 02:51:24;;;;;;;9.32;8.57;;;;;;;;;;5007189;28;20038;-73
2023/10/15 02:54:01;;;;;;;9.85;8.85;;;;;;;;;;5007043;28;20092;-73
2023/10/15 02:56:28;;;;;;;9.75;8.68;;;;;;;;;;4991626;28;20037;-73
2023/10/15 02:58:54;;;;;;;9.95;9.05;;;;;;;;;;5006352;28;20638;-74
2023/10/15 03:01:20;;;;;;;9.20;8.50;;;;;;;;;;4986104;28;20045;-75
2023/10/15 03:03:52;;;;;;;9.70;8.70;;;;;;;;;;5002974;28;20038;-76
2023/10/15 03:06:19;;;;;;;9.55;8.70;;;;;;;;;;5018933;28;20125;-73
2023/10/15 03:08:48;;;;;;;9.73;8.82;;;;;;;;;;4999215;28;20464;-73
2023/10/15 03:11:14;;;;;;;9.40;8.70;;;;;;;;;;5004886;28;20045;-73
2023/10/15 03:13:56;;;;;;;9.35;8.60;;;;;;;;;;4999196;28;20037;-73
2023/10/15 03:16:23;;;;;;;10.40;9.60;;;;;;;;;;5002193;28;20073;-73
2023/10/15 03:18:49;;;;;;;10.52;9.82;;;;;;;;;;4994211;28;20152;-72
2023/10/15 03:21:24;;;;;;;10.55;9.75;;;;;;;;;;4992620;28;20038;-72
2023/10/15 03:24:02;;;;;;;10.63;9.65;;;;;;;;;;4993012;28;20041;-74
2023/10/15 03:26:32;;;;;;;10.45;9.38;;;;;;;;;;4989738;28;20045;-72
2023/10/15 03:28:59;;;;;;;10.48;9.68;;;;;;;;;;4982706;28;20033;-75
2023/10/15 03:31:27;;;;;;;10.70;9.77;;;;;;;;;;4999494;28;20038;-73
2023/10/15 03:36:31;;;;;;;11.27;10.10;;;;;;;;;;4995036;28;20030;-73
2023/10/15 03:38:58;;;;;;;10.40;9.60;;;;;;;;;;4988472;28;20039;-72
2023/10/15 03:41:34;;;;;;;10.45;9.65;;;;;;;;;;4994416;28;20381;-72
2023/10/15 03:44:04;;;;;;;10.77;9.85;;;;;;;;;;4995535;28;20030;-75
2023/10/15 03:46:33;;;;;;;11.18;10.27;;;;;;;;;;4992756;28;20042;-73
2023/10/15 03:49:08;;;;;;;10.93;9.90;;;;;;;;;;4992407;28;20180;-73
2023/10/15 03:51:40;;;;;;;10.43;9.52;;;;;;;;;;4988796;28;20036;-73
2023/10/15 03:54:08;;;;;;;11.02;9.95;;;;;;;;;;4988646;28;20110;-75
2023/10/15 03:56:34;;;;;;;11.02;9.57;;;;;;;;;;4989180;28;20034;-72
2023/10/15 03:59:03;;;;;;;10.88;9.85;;;;;;;;;;4985141;28;20034;-75
2023/10/15 04:01:37;;;;;;;10.43;9.65;;;;;;;;;;4997648;28;20554;-73
2023/10/15 04:04:06;;;;;;;10.50;9.70;;;;;;;;;;4994070;28;20033;-74
2023/10/15 04:06:34;;;;;;;10.32;9.32;;;;;;;;;;4995820;28;20034;-73
2023/10/15 04:11:46;;;;;;;10.18;9.15;;;;;;;;;;4997495;28;20053;-74
2023/10/15 04:14:34;;;;;;;12.05;10.07;;;;;;;;;;4997789;28;20042;-73
2023/10/15 04:17:00;;;;;;;10.43;9.55;;;;;;;;;;4998875;28;20153;-74
2023/10/15 04:19:26;;;;;;;10.88;9.70;;;;;;;;;;5000504;28;20595;-74
2023/10/15 04:21:59;;;;;;;11.15;10.35;;;;;;;;;;4999833;28;20033;-73
2023/10/15 04:24:59;;;;;;;10.48;9.73;;;;;;;;;;4999689;28;20432;-73
2023/10/15 04:27:19;;;;;;;11.13;10.32;;;;;;;;;;4996631;28;20058;-73
2023/10/15 04:29:54;;;;;;;11.00;10.20;;;;;;;;;;5005789;28;20076;-74
2023/10/15 04:32:29;;;;;;;12.15;10.20;;;;;;;;;;4997358;28;20041;-73
2023/10/15 04:35:01;;;;;;;10.60;9.70;;;;;;;;;;4996730;28;20104;-73
2023/10/15 04:37:29;;;;;;;11.05;10.15;;;;;;;;;;4978128;28;20038;-75
2023/10/15 04:39:55;;;;;;;10.77;9.98;;;;;;;;;;4991290;28;20057;-74
2023/10/15 04:42:21;;;;;;;11.18;10.32;;;;;;;;;;4998150;28;20515;-74
2023/10/15 04:44:51;;;;;;;10.93;9.98;;;;;;;;;;4987862;28;20034;-74
2023/10/15 04:47:27;;;;;;;10.23;9.35;;;;;;;;;;4989898;28;20026;-74
2023/10/15 04:49:57;;;;;;;11.50;10.50;;;;;;;;;;5004162;28;20484;-74
2023/10/15 04:52:27;;;;;;;11.38;10.13;;;;;;;;;;4988602;28;20123;-74
2023/10/15 04:54:55;;;;;;;11.95;10.82;;;;;;;;;;4989202;28;20085;-74
2023/10/15 04:57:23;;;;;;;15.83;11.73;;;;;;;;;;4990218;28;20048;-73
2023/10/15 04:59:49;;;;;;;11.90;10.90;;;;;;;;;;4989593;28;20213;-74
2023/10/15 05:02:14;;;;;;;12.75;11.55;;;;;;;;;;5002644;28;20057;-75
2023/10/15 05:04:40;;;;;;;12.45;11.25;;;;;;;;;;4987339;28;20050;-74
2023/10/15 05:07:05;;;;;;;12.75;11.65;;;;;;;;;;4988012;28;20073;-75
2023/10/15 05:09:31;;;;;;;12.48;11.52;;;;;;;;;;4999425;28;20434;-75
2023/10/15 05:12:00;;;;;;;12.32;11.18;;;;;;;;;;4996541;28;20128;-74
2023/10/15 05:14:26;;;;;;;12.85;11.52;;;;;;;;;;4990554;28;20042;-74
2023/10/15 05:16:51;;;;;;;12.40;11.20;;;;;;;;;;4992427;28;20042;-74
2023/10/15 05:19:17;;;;;;;12.57;11.50;;;;;;;;;;4991750;28;20034;-74
2023/10/15 05:21:46;;;;;;;12.82;11.52;;;;;;;;;;4990007;28;20042;-74
2023/10/15 05:24:18;;;;;;;;;;;;;;;;;;4995239;28;20045;-74
2023/10/15 05:26:50;;;;;;;12.85;11.75;;;;;;;;;;4996569;28;19917;-75
2023/10/15 05:29:15;;;;;;;13.30;11.73;;;;;;;;;;4998919;28;20037;-75
2023/10/15 05:31:42;;;;;;;12.45;11.40;;;;;;;;;;4998401;28;20034;-75
2023/10/15 05:34:08;;;;;;;12.00;11.15;;;;;;;;;;4999167;28;20034;-75
2023/10/15 05:36:37;;;;;;;13.75;11.80;;;;;;;;;;4993207;28;20040;-75
2023/10/15 05:39:04;;;;;;;12.93;11.50;;;;;;;;;;4993407;28;20038;-74
2023/10/15 05:41:32;;;;;;;12.43;11.32;;;;;;;;;;4995658;28;20053;-74
2023/10/15 05:43:58;;;;;;;12.85;11.75;;;;;;;;;;5002453;28;20040;-75
2023/10/15 05:46:25;;;;;;;12.63;11.60;;;;;;;;;;4985977;28;20044;-75
2023/10/15 05:48:51;;;;;;;13.73;11.82;;;;;;;;;;5001047;28;20034;-76
2023/10/15 05:51:17;;;;;;;12.18;11.15;;;;;;;;;;4998319;28;20373;-75
2023/10/15 05:53:43;;;;;;;13.13;10.65;;;;;;;;;;4990694;28;20550;-73
2023/10/15 05:56:08;;;;;;;12.57;11.52;;;;;;;;;;4999133;28;20788;-73
2023/10/15 05:58:36;;;;;;;14.98;12.05;;;;;;;;;;4996229;28;20041;-74
2023/10/15 06:01:03;;;;;;;13.20;11.10;;;;;;;;;;5003362;28;20109;-75
2023/10/15 06:03:30;;;;;;;12.32;11.15;;;;;;;;;;4997582;28;20068;-73
2023/10/15 06:05:58;;;;;;;12.07;11.18;;;;;;;;;;4983501;28;20052;-74
2023/10/15 06:08:24;;;;;;;12.60;10.85;;;;;;;;;;4998323;28;20030;-73
2023/10/15 06:10:50;;;;;;;11.60;10.70;;;;;;;;;;5003649;28;20117;-73
2023/10/15 06:13:16;;;;;;;17.88;10.98;;;;;;;;;;4999023;28;20140;-73
2023/10/15 06:15:42;;;;;;;11.50;10.63;;;;;;;;;;5000888;28;20072;-74
2023/10/15 06:18:09;;;;;;;13.10;10.48;;;;;;;;;;5000140;28;20038;-73
2023/10/15 06:20:35;;;;;;;11.70;10.70;;;;;;;;;;4997697;28;20096;-74
2023/10/15 06:23:04;;;;;;;11.73;10.55;;;;;;;;;;4998977;28;20034;-73
2023/10/15 06:25:30;;;;;;;12.60;10.68;;;;;;;;;;4995146;28;20108;-76
2023/10/15 06:27:55;;;;;;;13.20;11.10;;;;;;;;;;5016735;28;20030;-77
2023/10/15 06:30:21;;;;;;;11.35;10.35;;;;;;;;;;4997488;28;20038;-77
2023/10/15 06:32:48;;;;;;;11.10;10.30;;;;;;;;;;5000384;28;20045;-73
2023/10/15 06:35:18;;;;;;;12.10;11.05;;;;;;;;;;5000677;28;20060;-74
2023/10/15 06:37:48;;;;;;;11.55;10.70;;;;;;;;;;5009497;28;20116;-74
2023/10/15 06:40:15;;;;;;;11.80;10.57;;;;;;;;;;4991098;28;20041;-74
2023/10/15 06:42:43;;;;;;;11.48;10.52;;;;;;;;;;5003931;28;20034;-74
2023/10/15 06:45:09;;;;;;;12.13;11.23;;;;;;;;;;5001796;28;20038;-74
2023/10/15 06:47:35;;;;;;;11.73;10.55;;;;;;;;;;5003499;28;20041;-74
2023/10/15 06:50:07;;;;;;;11.93;10.68;;;;;;;;;;5007431;28;20030;-73
2023/10/15 06:52:38;;;;;;;11.65;10.75;;;;;;;;;;5020952;28;20045;-75
2023/10/15 06:55:05;;;;;;;12.02;10.50;;;;;;;;;;5008709;28;20046;-74
2023/10/15 06:57:30;;;;;;;11.50;10.35;;;;;;;;;;5008175;28;20053;-72
2023/10/15 07:00:22;;;;;;;11.70;10.70;;;;;;;;;;5014530;28;20033;-73
2023/10/15 07:03:09;;;;;;;11.45;10.18;;;;;;;;;;5022073;28;20045;-75
2023/10/15 07:05:36;;;;;;;13.30;10.95;;;;;;;;;;5003122;28;20038;-75
2023/10/15 07:08:02;;;;;;;11.38;10.27;;;;;;;;;;4996990;28;20739;-74
2023/10/15 07:10:28;;;;;;;13.50;10.77;;;;;;;;;;4994640;28;20030;-74
2023/10/15 07:12:56;;;;;;;11.02;10.20;;;;;;;;;;5007133;28;20396;-74
2023/10/15 07:15:24;;;;;;;10.73;9.95;;;;;;;;;;4996821;28;20665;-74
2023/10/15 07:17:50;;;;;;;12.40;11.35;;;;;;;;;;4994057;28;20041;-74
2023/10/15 07:20:18;;;;;;;11.52;10.52;;;;;;;;;;5000799;28;20129;-75
2023/10/15 07:22:46;;;;;;;10.90;10.15;;;;;;;;;;4998078;28;20084;-75
2023/10/15 07:25:13;;;;;;;12.57;10.55;;;;;;;;;;5000167;28;20034;-75
2023/10/15 07:27:41;;;;;;;12.90;10.75;;;;;;;;;;4999207;28;20038;-75
2023/10/15 07:30:13;;;;;;;11.75;10.63;;;;;;;;;;4990237;28;20030;-75
2023/10/15 07:32:40;;;;;;;11.70;10.35;;;;;;;;;;4994087;28;20033;-75
2023/10/15 07:35:07;;;;;;;12.20;10.95;;;;;;;;;;4996291;28;20118;-74
2023/10/15 07:37:34;;;;;;;11.85;10.73;;;;;;;;;;5000789;28;20124;-75
2023/10/15 07:40:05;;;;;;;11.68;10.52;;;;;;;;;;5000536;28;20033;-75
2023/10/15 07:42:34;;;;;;;11.65;10.70;;;;;;;;;;4994997;28;20046;-75
2023/10/15 07:45:00;;;;;;;13.18;11.20;;;;;;;;;;4986454;28;20046;-74
2023/10/15 07:47:26;;;;;;;12.57;11.10;;;;;;;;;;5000830;28;20037;-75
2023/10/15 07:49:52;;;;;;;11.88;10.88;;;;;;;;;;5002793;28;20059;-75
2023/10/15 07:52:17;;;;;;;11.57;10.50;;;;;;;;;;5000189;28;20037;-75
2023/10/15 07:54:43;;;;;;;12.65;11.40;;;;;;;;;;5001216;28;20025;-74
2023/10/15 07:57:10;;;;;;;13.00;10.70;;;;;;;;;;4998880;28;20045;-76
2023/10/15 07:59:36;;;;;;;13.32;10.30;;;;;;;;;;5001176;28;20054;-75
2023/10/15 08:02:03;;;;;;;12.05;10.88;;;;;;;;;;4991282;28;20061;-75
2023/10/15 08:04:29;;;;;;;13.38;10.70;;;;;;;;;;4995308;28;20400;-75
2023/10/15 08:06:55;;;;;;;11.85;10.75;;;;;;;;;;4982653;28;20054;-75
2023/10/15 08:09:21;;;;;;;11.98;10.77;;;;;;;;;;4994752;28;20109;-74
2023/10/15 08:11:47;;;;;;;11.27;10.27;;;;;;;;;;4994172;28;20195;-75
2023/10/15 08:14:13;;;;;;;11.93;10.68;;;;;;;;;;4991379;28;20714;-75
2023/10/15 08:16:38;;;;;;;11.40;10.43;;;;;;;;;;4993746;28;20495;-74
2023/10/15 08:19:04;;;;;;;12.25;11.15;;;;;;;;;;5007712;28;20034;-75
2023/10/15 08:21:33;;;;;;;11.48;10.48;;;;;;;;;;4993692;28;20069;-74
2023/10/15 08:23:59;;;;;;;10.60;9.65;;;;;;;;;;4994601;28;20056;-73
2023/10/15 08:26:24;;;;;;;10.80;9.90;;;;;;;;;;4989401;28;20038;-73
2023/10/15 08:28:50;;;;;;;11.75;9.75;;;;;;;;;;4995242;28;20064;-74
2023/10/15 08:31:15;;;;;;;10.18;9.38;;;;;;;;;;4988196;28;20071;-73
2023/10/15 08:33:42;;;;;;;10.63;9.63;;;;;;;;;;4993033;28;20127;-75
2023/10/15 08:36:08;;;;;;;10.07;9.38;;;;;;;;;;4985991;28;20792;-72
2023/10/15 08:38:34;;;;;;;10.90;9.85;;;;;;;;;;4990910;28;20042;-74
2023/10/15 08:41:04;;;;;;;10.60;9.60;;;;;;;;;;4989015;28;20026;-75
2023/10/15 08:43:32;;;;;;;12.38;9.57;;;;;;;;;;4990556;28;20693;-74
2023/10/15 08:46:01;;;;;;;11.63;9.80;;;;;;;;;;4994744;28;20045;-73
2023/10/15 08:48:28;;;;;;;10.95;8.98;;;;;;;;;;5004122;28;20030;-74
2023/10/15 08:50:57;;;;;;;11.40;9.77;;;;;;;;;;4997532;28;20037;-74
2023/10/15 08:53:26;;;;;;;11.02;8.60;;;;;;;;;;4994461;28;20088;-74
2023/10/15 08:55:57;;;;;;;9.88;8.90;;;;;;;;;;5000082;28;20042;-74
2023/10/15 08:58:25;;;;;;;9.95;9.02;;;;;;;;;;4995932;28;20103;-74
2023/10/15 09:00:53;;;;;;;10.23;9.48;;;;;;;;;;4995210;28;20120;-74
2023/10/15 09:03:23;;;;;;;11.68;9.15;;;;;;;;;;4994527;28;20044;-74
2023/10/15 09:05:52;;;;;;;10.10;9.10;;;;;;;;;;4995582;28;20588;-73
2023/10/15 09:08:19;;;;;;;9.65;8.82;;;;;;;;;;4992116;28;20136;-73
2023/10/15 09:10:45;;;;;;;11.48;8.82;;;;;;;;;;4973822;28;20041;-73
2023/10/15 09:13:15;;;;;;;9.45;8.75;;;;;;;;;;4992410;28;20034;-73
2023/10/15 09:15:43;;;;;;;10.13;9.20;;;;;;;;;;4994298;28;20388;-73
2023/10/15 09:18:15;;;;;;;12.35;9.30;;;;;;;;;;4991545;28;20042;-73
2023/10/15 09:20:44;;;;;;;10.65;8.63;;;;;;;;;;4989442;28;20045;-73
2023/10/15 09:23:10;;;;;;;9.55;8.82;;;;;;;;;;4993012;28;20037;-73
2023/10/15 09:25:36;;;;;;;12.57;8.27;;;;;;;;;;4995333;28;20037;-74
2023/10/15 09:28:02;;;;;;;11.50;9.00;;;;;;;;;;4990387;28;20040;-73
2023/10/15 09:30:30;;;;;;;11.15;8.63;;;;;;;;;;4988451;28;20034;-73
2023/10/15 09:32:57;;;;;;;9.07;8.38;;;;;;;;;;4989893;28;20139;-73
2023/10/15 09:35:23;;;;;;;9.05;8.23;;;;;;;;;;4991112;28;20148;-74
2023/10/15 09:37:49;;;;;;;8.88;8.18;;;;;;;;;;4991790;28;20037;-74
2023/10/15 09:40:23;;;;;;;11.85;8.43;;;;;;;;;;4991863;28;20061;-73
2023/10/15 09:42:53;;;;;;;8.80;8.20;;;;;;;;;;5000171;28;20036;-73
2023/10/15 09:45:23;;;;;;;10.57;8.35;;;;;;;;;;4997045;28;20029;-73
2023/10/15 09:47:59;;;;;;;8.80;8.10;;;;;;;;;;4996643;28;20160;-73
2023/10/15 09:50:31;;;;;;;9.18;8.35;;;;;;;;;;4993498;28;20038;-73
2023/10/15 09:53:01;;;;;;;8.68;8.10;;;;;;;;;;4999574;28;20125;-73
2023/10/15 09:55:31;;;;;;;9.07;8.43;;;;;;;;;;4994291;28;20057;-73
2023/10/15 09:58:01;;;;;;;8.45;7.88;;;;;;;;;;4994727;28;20644;-73
2023/10/15 10:03:49;;;;;;;9.75;8.95;;;;;;;;;;4991958;28;20373;-73
2023/10/15 10:06:43;;;;;;;10.38;9.50;;;;;;;;;;4986877;28;20034;-74
2023/10/15 10:09:51;;;;;;;10.00;9.15;;;;;;;;;;4993283;28;20030;-73
2023/10/15 10:12:32;;;;;;;9.68;8.93;;;;;;;;;;4999116;28;20116;-74
2023/10/15 10:15:33;;;;;;;10.10;9.07;;;;;;;;;;5000440;28;20117;-74
2023/10/15 10:18:00;;;;;;;9.52;8.68;;;;;;;;;;4999676;28;20125;-75
2023/10/15 10:20:32;;;;;;;8.63;7.97;;;;;;;;;;5005479;28;20107;-74
2023/10/15 10:23:04;;;;;;;9.05;8.30;;;;;;;;;;5006540;28;20042;-74
2023/10/15 10:25:42;;;;;;;8.77;8.10;;;;;;;;;;5004973;28;20029;-74
2023/10/15 10:28:19;;;;;;;9.13;8.30;;;;;;;;;;5005794;28;20033;-74
2023/10/15 10:30:56;;;;;;;8.88;8.07;;;;;;;;;;5002561;28;20046;-74
2023/10/15 10:33:42;;;;;;;9.13;8.32;;;;;;;;;;5006497;28;20037;-75
2023/10/15 10:36:15;;;;;;;9.32;8.52;;;;;;;;;;5001482;28;20038;-74
2023/10/15 10:38:42;;;;;;;9.75;8.88;;;;;;;;;;5004410;28;20033;-75
2023/10/15 10:41:15;;;;;;;9.30;8.50;;;;;;;;;;5006273;28;20482;-75
2023/10/15 10:43:45;;;;;;;8.77;8.18;;;;;;;;;;5005375;28;20414;-75
2023/10/15 10:46:21;;;;;;;9.13;8.43;;;;;;;;;;5002482;28;20040;-75
2023/10/15 10:49:04;;;;;;;9.20;8.60;;;;;;;;;;5003696;28;20041;-74
2023/10/15 10:51:30;;;;;;;9.90;9.10;;;;;;;;;;5010326;28;20491;-75
2023/10/15 10:53:59;;;;;;;9.55;8.85;;;;;;;;;;4999909;28;20041;-76
2023/10/15 10:56:40;;;;;;;10.27;9.23;;;;;;;;;;5008697;28;20076;-75
2023/10/15 10:59:14;;;;;;;9.68;8.85;;;;;;;;;;5001313;28;20153;-75
2023/10/15 11:01:46;;;;;;;9.70;9.00;;;;;;;;;;5024724;28;20038;-75
2023/10/15 11:04:15;;;;;;;10.95;9.27;;;;;;;;;;5006002;28;20033;-75
2023/10/15 11:06:46;;;;;;;9.48;8.77;;;;;;;;;;5004955;28;20072;-76
2023/10/15 11:09:18;;;;;;;9.40;8.70;;;;;;;;;;5005759;28;20030;-75
2023/10/15 11:11:47;;;;;;;8.45;7.95;;;;;;;;;;5004948;28;20046;-71
2023/10/15 11:14:16;;;;;;;9.85;8.90;;;;;;;;;;5005377;28;20073;-74
2023/10/15 11:16:43;;;;;;;9.95;9.02;;;;;;;;;;5008511;28;20582;-74
2023/10/15 11:19:25;;;;;;;9.88;8.95;;;;;;;;;;5008920;28;20465;-73
2023/10/15 11:21:52;;;;;;;10.07;8.95;;;;;;;;;;5006537;28;20037;-77
2023/10/15 11:24:24;;;;;;;9.57;8.77;;;;;;;;;;5006385;28;20630;-74
2023/10/15 11:26:50;;;;;;;10.48;9.20;;;;;;;;;;4998570;28;20700;-74
2023/10/15 11:29:18;;;;;;;9.38;8.70;;;;;;;;;;5004864;28;20022;-74
2023/10/15 11:31:53;;;;;;;9.70;8.95;;;;;;;;;;5007834;28;20120;-75
2023/10/15 11:34:24;;;;;;;10.55;9.10;;;;;;;;;;5009483;28;20041;-74
2023/10/15 11:36:57;;;;;;;9.25;8.65;;;;;;;;;;4995572;28;20042;-74
2023/10/15 11:39:37;;;;;;;9.63;8.75;;;;;;;;;;4969836;28;20567;-74
2023/10/15 11:42:06;;;;;;;9.70;8.90;;;;;;;;;;5004039;28;20029;-74
2023/10/15 11:44:33;;;;;;;9.63;8.85;;;;;;;;;;4986383;28;20121;-75
2023/10/15 11:47:12;;;;;;;9.90;9.00;;;;;;;;;;5004268;28;20038;-74
2023/10/15 11:49:42;;;;;;;9.45;8.75;;;;;;;;;;5015848;28;20042;-74
2023/10/15 11:52:18;;;;;;;9.82;9.00;;;;;;;;;;5002841;28;20065;-74
2023/10/15 11:54:49;;;;;;;9.82;9.00;;;;;;;;;;5003725;28;20049;-74
2023/10/15 11:57:26;;;;;;;9.40;8.65;;;;;;;;;;5000640;28;20118;-75
2023/10/15 11:59:53;;;;;;;10.27;8.93;;;;;;;;;;5003628;28;20034;-75
2023/10/15 12:02:19;;;;;;;9.88;9.02;;;;;;;;;;4985351;28;20775;-75
2023/10/15 12:04:51;;;;;;;9.35;8.65;;;;;;;;;;4989975;28;20030;-75
2023/10/15 12:07:21;;;;;;;9.15;8.55;;;;;;;;;;4996571;28;20034;-76
2023/10/15 12:09:47;;;;;;;10.05;9.25;;;;;;;;;;4996713;28;20026;-75
2023/10/15 12:12:15;;;;;;;9.63;8.93;;;;;;;;;;4994985;28;20145;-74
2023/10/15 12:14:41;;;;;;;9.68;8.90;;;;;;;;;;4994608;28;20804;-75
2023/10/15 12:17:06;;;;;;;9.70;8.98;;;;;;;;;;4998083;28;20033;-75
2023/10/15 12:19:32;;;;;;;10.30;9.35;;;;;;;;;;4999521;28;20132;-76
2023/10/15 12:21:58;;;;;;;9.65;8.80;;;;;;;;;;4994108;28;20403;-75
2023/10/15 12:24:25;;;;;;;10.07;9.30;;;;;;;;;;4995520;28;20040;-75
2023/10/15 12:26:51;;;;;;;9.57;8.70;;;;;;;;;;4997467;28;20041;-74
2023/10/15 12:29:17;;;;;;;9.73;9.13;;;;;;;;;;5002891;28;20038;-75
2023/10/15 12:31:43;;;;;;;10.52;9.55;;;;;;;;;;4994103;28;20042;-74
2023/10/15 12:34:12;;;;;;;12.45;11.18;;;;;;;;;;4993455;28;20048;-74
2023/10/15 12:36:39;;;;;;;11.63;10.68;;;;;;;;;;4988296;28;20042;-75
2023/10/15 12:39:11;;;;;;;11.27;10.48;;;;;;;;;;4983398;28;20030;-75
2023/10/15 12:41:38;;;;;;;10.82;10.02;;;;;;;;;;4987413;28;20049;-75
2023/10/15 12:44:11;;;;;;;10.82;9.82;;;;;;;;;;4993252;28;20888;-76
2023/10/15 12:46:37;;;;;;;10.55;9.65;;;;;;;;;;4994529;28;20038;-75
2023/10/15 12:49:03;;;;;;;10.20;9.20;;;;;;;;;;5007825;28;20034;-75
2023/10/15 12:51:32;;;;;;;10.27;9.38;;;;;;;;;;4997204;28;20109;-74
2023/10/15 12:53:58;;;;;;;10.70;9.80;;;;;;;;;;4995694;28;20109;-74
2023/10/15 12:56:24;;;;;;;9.07;8.48;;;;;;;;;;4990399;28;20323;-75
2023/10/15 12:58:50;;;;;;;9.15;8.52;;;;;;;;;;4994227;28;20038;-75
2023/10/15 13:01:23;;;;;;;10.20;9.20;;;;;;;;;;4996601;28;20033;-75
2023/10/15 13:03:49;;;;;;;9.90;9.00;;;;;;;;;;4993610;28;20042;-76
2023/10/15 13:06:19;;;;;;;10.35;9.43;;;;;;;;;;4987688;28;20046;-76
2023/10/15 13:08:46;;;;;;;9.43;8.75;;;;;;;;;;4985823;28;20038;-74
2023/10/15 13:11:11;;;;;;;9.55;8.85;;;;;;;;;;5012582;28;20108;-74
2023/10/15 13:13:38;;;;;;;9.95;9.15;;;;;;;;;;4996054;28;20113;-76
2023/10/15 13:16:04;;;;;;;10.02;9.23;;;;;;;;;;4987533;28;20030;-75
2023/10/15 13:18:30;;;;;;;9.10;8.50;;;;;;;;;;4988525;28;20096;-76
2023/10/15 13:20:57;;;;;;;9.80;9.02;;;;;;;;;;4985646;28;20029;-74
2023/10/15 13:23:23;;;;;;;9.38;8.73;;;;;;;;;;4987040;28;20030;-74
2023/10/15 13:25:49;;;;;;;9.60;8.90;;;;;;;;;;4988112;28;20571;-75
2023/10/15 13:28:15;;;;;;;11.68;9.00;;;;;;;;;;4985706;28;20026;-75
2023/10/15 13:30:41;;;;;;;10.65;9.70;;;;;;;;;;4992671;28;20343;-74
2023/10/15 13:33:07;;;;;;;9.20;8.60;;;;;;;;;;4990213;28;20173;-75
2023/10/15 13:35:35;;;;;;;9.63;9.02;;;;;;;;;;4991893;28;20645;-75
2023/10/15 13:38:01;;;;;;;9.73;8.82;;;;;;;;;;4992596;28;21052;-75
2023/10/15 13:40:27;;;;;;;9.38;8.68;;;;;;;;;;4986152;28;20038;-75
2023/10/15 13:42:52;;;;;;;9.13;8.52;;;;;;;;;;5005842;28;20480;-75
2023/10/15 13:45:19;;;;;;;9.25;8.65;;;;;;;;;;4993252;28;20070;-75
2023/10/15 13:47:46;;;;;;;9.32;8.60;;;;;;;;;;4988193;28;20121;-74
2023/10/15 13:50:17;;;;;;;9.27;8.68;;;;;;;;;;4982428;28;20046;-76
2023/10/15 13:52:43;;;;;;;8.80;8.20;;;;;;;;;;4984331;28;20038;-74
2023/10/15 13:55:09;;;;;;;9.30;8.60;;;;;;;;;;5000633;28;20100;-75
2023/10/15 13:57:39;;;;;;;9.25;8.52;;;;;;;;;;4991061;28;20531;-75
2023/10/15 14:00:11;;;;;;;8.70;8.13;;;;;;;;;;5000731;28;20037;-73
2023/10/15 14:02:44;;;;;;;9.13;8.40;;;;;;;;;;4990608;28;20117;-73
2023/10/15 14:05:15;;;;;;;8.70;8.10;;;;;;;;;;4989099;28;20042;-75
2023/10/15 14:07:42;;;;;;;9.00;8.40;;;;;;;;;;4977681;28;20114;-76
2023/10/15 14:10:08;;;;;;;8.77;8.13;;;;;;;;;;4995443;28;20040;-73
2023/10/15 14:12:34;;;;;;;9.32;8.57;;;;;;;;;;4991089;28;20038;-76
2023/10/15 14:15:00;;;;;;;9.55;8.85;;;;;;;;;;4988489;28;20045;-74
2023/10/15 14:17:26;;;;;;;8.40;7.90;;;;;;;;;;4995467;28;20886;-77
2023/10/15 14:19:55;;;;;;;9.85;8.93;;;;;;;;;;4985195;28;20085;-74
2023/10/15 14:22:21;;;;;;;9.05;8.45;;;;;;;;;;4995341;28;20046;-74
2023/10/15 14:24:47;;;;;;;9.70;9.02;;;;;;;;;;4996694;28;20045;-74
2023/10/15 14:27:13;;;;;;;9.57;8.88;;;;;;;;;;4989263;28;20068;-76
2023/10/15 14:29:40;;;;;;;9.38;8.48;;;;;;;;;;4988475;28;20132;-74
2023/10/15 14:32:07;;;;;;;9.60;8.75;;;;;;;;;;4992207;28;20042;-74
2023/10/15 14:34:33;;;;;;;9.85;9.15;;;;;;;;;;4991395;28;20086;-76
2023/10/15 14:37:03;;;;;;;9.40;8.70;;;;;;;;;;4997156;28;20032;-75
2023/10/15 14:39:31;;;;;;;8.93;8.30;;;;;;;;;;4991138;28;20041;-76
2023/10/15 14:41:56;;;;;;;8.88;8.27;;;;;;;;;;4992979;28;20522;-75
2023/10/15 14:44:23;;;;;;;8.48;7.88;;;;;;;;;;4993174;28;20744;-76
2023/10/15 14:46:49;;;;;;;8.98;8.27;;;;;;;;;;4985519;28;20213;-75
2023/10/15 14:49:14;;;;;;;9.00;8.30;;;;;;;;;;4987622;28;20650;-75
2023/10/15 14:51:41;;;;;;;8.07;7.47;;;;;;;;;;4988547;28;20045;-74
2023/10/15 14:54:08;;;;;;;8.50;7.80;;;;;;;;;;4991230;28;20037;-74
2023/10/15 14:56:33;;;;;;;8.48;7.88;;;;;;;;;;4985405;28;20058;-74
2023/10/15 14:59:00;;;;;;;9.45;8.63;;;;;;;;;;4988074;28;20033;-75